Skip Navigation Links
NOAA logo - Click to go to the NOAA homepage
NOAA's National Weather Service
Alaska Aviation Weather Unit
  NWS logo - Click to go to the NWS homepage
Left Navbar Graphic     00 AKDT = 08 GMT

   
NOAA is celebrating 200 years of science, service, and stewardship. Visit the NOAA 200th celebration Web site to learn more.
USA.gov is the U.S. Government's official Web portal to all Federal, state and local government Web resources and services.
Facebook
NWS on Facebook

Important Change Regarding the AAWU Web Presence

 

Over the last several months, the AAWU has been working to navigate its webpages to a nationally supported server. Security, as well as other needs, have necessitated the change.  We have been given an extension for the site changeover while we diligently work at addressing feedback received. As of July 14, 2017, aawu.arh.noaa.gov will be discontinued. The new AAWU web address is weather.gov/aawu. It is now live and will run in-parallel with the old site until it is discontinued on July 14, 2017. Please continue to send any feedback or questions regarding the new webpages to nws.ar.aawu.webauthors@noaa.gov.  Thank you for your patience during this time of transition.
AAWU Home :: Display TAF Add Bookmark
TAF PAVD 240541Z 2406/2506  VRB03KT P6SM -RA FEW001 OVC045
     FM241200 VRB03KT 6SM -RA BR SCT015 OVC025
      TEMPO 2418/2422 P6SM -RA SCT025 BKN045
      AMD LTD TO CLD VIS AND WIND=

4449
FTAK31 PANC 240541
TAFATK
TAF

METAR PAVD 240256Z 07004KT 10SM -RA FEW003 BKN060 OVC075 09/08 A2963= METAR PAVD 240356Z 08005KT 10SM -RA FEW006 BKN055 OVC075 08/07 A2961= METAR PAVD 240456Z 00000KT 9SM -RA FEW001 BKN050 OVC065 08/07 A2960= METAR PAVD 240556Z 08004KT 8SM -RA FEW001 SCT025 OVC050 07/07 A2959= METAR PAVD 240656Z AUTO 00000KT 10SM -RA BKN060 OVC075 07/07 A2958= METAR PAVD 240756Z AUTO 09003KT 10SM -RA BKN065 OVC075 07/07 A2956=
 Alaska TAF Map

NOAA's National Weather Service
Alaska Aviation Weather Unit
6930 Sand Lake Road
Anchorage, AK 99502-1845
Disclaimer
Credits
Glossary
Privacy Policy
About Us
Career Opportunities
Contact AAWU Internet Services Site last modified: April, 17th 2012